Time;durP1;ratioP1;P1;durP2;ratioP2;P2;SDS_P1;SDS_P2;PMS_P1;PMS_P2;Temp;Humidity;BMP_temperature;BMP_pressure;BME280_temperature;BME280_humidity;BME280_pressure;Samples;Min_cycle;Max_cycle;Signal;HPM_P1;HPM_P2
2022/05/14 00:01:07;;;;;;;0.50;0.40;;;11.90;99.90;;;;;;4998216;28;20196;-81
2022/05/14 00:03:38;;;;;;;0.50;0.40;;;11.90;99.90;;;;;;4997388;28;20204;-82
2022/05/14 00:06:08;;;;;;;0.50;0.40;;;11.90;99.90;;;;;;4998053;28;20724;-82
2022/05/14 00:08:35;;;;;;;0.50;0.40;;;11.80;99.90;;;;;;4997677;28;20189;-82
2022/05/14 00:14:00;;;;;;;0.50;0.40;;;11.80;99.90;;;;;;4936820;29;20261;-82
2022/05/14 00:16:27;;;;;;;0.50;0.40;;;11.80;99.90;;;;;;4983888;28;20226;-82
2022/05/14 00:18:54;;;;;;;0.50;0.40;;;11.90;99.90;;;;;;4996744;28;20672;-82
2022/05/14 00:21:22;;;;;;;0.50;0.40;;;11.90;99.90;;;;;;4997378;28;20200;-82
2022/05/14 00:23:49;;;;;;;0.50;0.40;;;11.90;99.90;;;;;;4997531;28;20201;-82
2022/05/14 00:26:17;;;;;;;0.50;0.40;;;11.90;99.90;;;;;;4996769;28;20637;-81
2022/05/14 00:28:44;;;;;;;0.50;0.40;;;11.90;99.90;;;;;;4997170;28;20200;-82
2022/05/14 00:31:12;;;;;;;0.50;0.40;;;12.00;99.90;;;;;;4997953;28;20670;-82
2022/05/14 00:33:39;;;;;;;0.50;0.40;;;12.00;99.90;;;;;;4997823;28;20200;-82
2022/05/14 00:36:06;;;;;;;0.50;0.40;;;11.90;99.90;;;;;;4997311;28;20212;-82
2022/05/14 00:38:33;;;;;;;0.50;0.40;;;11.90;99.90;;;;;;4996866;28;20208;-81
2022/05/14 00:41:01;;;;;;;0.50;0.40;;;11.80;99.90;;;;;;4996949;28;20197;-82
2022/05/14 00:43:29;;;;;;;14.32;13.32;;;11.80;99.90;;;;;;4996826;28;20203;-82
2022/05/14 00:46:01;;;;;;;0.50;0.40;;;11.70;99.90;;;;;;4996745;28;20220;-81
2022/05/14 00:48:37;;;;;;;0.50;0.40;;;11.70;99.90;;;;;;4996193;28;20203;-82
2022/05/14 00:51:05;;;;;;;0.50;0.40;;;11.70;99.90;;;;;;4997429;28;20185;-82
2022/05/14 00:53:35;;;;;;;0.50;0.40;;;11.70;99.90;;;;;;4996383;28;20208;-82
2022/05/14 00:56:05;;;;;;;0.50;0.40;;;11.70;99.90;;;;;;4996764;28;20218;-80
2022/05/14 00:58:38;;;;;;;0.50;0.40;;;11.70;99.90;;;;;;4996642;28;20567;-82
2022/05/14 01:01:06;;;;;;;0.73;0.73;;;11.70;99.90;;;;;;4996582;28;20211;-82
2022/05/14 01:03:35;;;;;;;0.50;0.40;;;11.80;99.90;;;;;;4996859;28;20203;-82
2022/05/14 01:06:04;;;;;;;0.50;0.40;;;11.80;99.90;;;;;;4996869;28;20234;-81
2022/05/14 01:08:31;;;;;;;0.50;0.40;;;11.90;99.90;;;;;;4997827;28;20208;-82
2022/05/14 01:10:58;;;;;;;0.50;0.40;;;11.90;99.90;;;;;;4996606;28;20229;-83
2022/05/14 01:13:26;;;;;;;0.50;0.40;;;11.90;99.90;;;;;;4996672;28;20205;-82
2022/05/14 01:15:55;;;;;;;0.50;0.40;;;11.90;99.90;;;;;;4996600;28;20196;-82
2022/05/14 01:18:24;;;;;;;0.50;0.40;;;11.90;99.90;;;;;;4996362;28;20571;-82
2022/05/14 01:20:56;;;;;;;0.50;0.40;;;11.90;99.90;;;;;;4995553;28;20203;-81
2022/05/14 01:23:33;;;;;;;0.50;0.40;;;11.80;99.90;;;;;;4996440;28;20210;-82
2022/05/14 01:26:29;;;;;;;0.50;0.40;;;11.80;99.90;;;;;;4996067;28;20230;-82
2022/05/14 01:28:57;;;;;;;0.60;0.60;;;11.70;99.90;;;;;;4995826;28;20203;-82
2022/05/14 01:31:24;;;;;;;0.50;0.40;;;11.70;99.90;;;;;;4996043;28;20200;-82
2022/05/14 01:33:51;;;;;;;0.50;0.40;;;11.70;99.90;;;;;;4995842;28;20212;-82
2022/05/14 01:36:18;;;;;;;1.88;1.40;;;11.80;99.90;;;;;;4995702;28;20657;-82
2022/05/14 01:38:44;;;;;;;0.50;0.40;;;11.80;99.90;;;;;;4995753;28;20700;-81
2022/05/14 01:41:12;;;;;;;0.50;0.40;;;11.80;99.90;;;;;;4995109;28;20208;-81
2022/05/14 01:43:39;;;;;;;0.70;0.70;;;11.80;99.90;;;;;;4996184;28;20211;-81
2022/05/14 01:46:06;;;;;;;0.50;0.40;;;11.80;99.90;;;;;;4995766;28;20231;-82
2022/05/14 01:48:33;;;;;;;0.50;0.40;;;11.80;99.90;;;;;;4995008;28;20208;-81
2022/05/14 01:51:00;;;;;;;0.50;0.40;;;11.80;99.90;;;;;;4995849;28;20697;-81
2022/05/14 01:53:28;;;;;;;0.50;0.40;;;11.70;99.90;;;;;;4995655;28;20231;-82
2022/05/14 01:55:55;;;;;;;0.50;0.40;;;11.70;99.90;;;;;;4995968;28;20208;-81
2022/05/14 01:58:37;;;;;;;0.50;0.40;;;11.80;99.90;;;;;;4995064;28;20199;-82
2022/05/14 02:01:08;;;;;;;0.52;0.47;;;11.80;99.90;;;;;;4995035;28;20192;-82
2022/05/14 02:03:35;;;;;;;0.70;0.60;;;11.80;99.90;;;;;;4995132;28;20232;-82
2022/05/14 02:06:03;;;;;;;0.50;0.43;;;11.80;99.90;;;;;;4994881;28;20223;-81
2022/05/14 02:08:29;;;;;;;2.88;1.73;;;11.90;99.90;;;;;;4995326;28;20207;-81
2022/05/14 02:10:57;;;;;;;0.73;0.63;;;11.90;99.90;;;;;;4995150;28;20211;-82
2022/05/14 02:13:25;;;;;;;0.50;0.40;;;12.00;99.90;;;;;;4995507;28;20199;-81
2022/05/14 02:15:53;;;;;;;0.70;0.70;;;12.00;99.90;;;;;;4995801;28;20193;-81
2022/05/14 02:18:20;;;;;;;0.52;0.45;;;12.00;99.90;;;;;;4994875;28;20227;-81
2022/05/14 02:20:47;;;;;;;0.50;0.40;;;12.00;99.90;;;;;;4994527;28;20578;-82
2022/05/14 02:23:13;;;;;;;0.70;0.70;;;12.00;99.90;;;;;;4995201;28;20204;-81
2022/05/14 02:25:40;;;;;;;1.15;1.05;;;12.00;99.90;;;;;;4995681;28;20222;-82
2022/05/14 02:28:07;;;;;;;0.50;0.40;;;11.90;99.90;;;;;;4996167;28;20224;-81
2022/05/14 02:30:35;;;;;;;0.50;0.40;;;11.90;99.90;;;;;;5004986;28;20201;-80
2022/05/14 02:33:02;;;;;;;0.50;0.40;;;11.90;99.90;;;;;;5003673;28;20203;-82
2022/05/14 02:35:29;;;;;;;0.50;0.40;;;11.80;99.90;;;;;;5002194;28;20208;-79
2022/05/14 02:37:55;;;;;;;0.83;0.80;;;11.80;99.90;;;;;;5004812;28;20216;-80
2022/05/14 02:40:22;;;;;;;0.50;0.40;;;11.70;99.90;;;;;;5004645;28;20447;-81
2022/05/14 02:42:49;;;;;;;1.23;1.13;;;11.70;99.90;;;;;;5001729;28;20200;-80
2022/05/14 02:45:16;;;;;;;0.50;0.50;;;11.70;99.90;;;;;;5004251;28;20224;-82
2022/05/14 02:47:44;;;;;;;1.50;1.40;;;11.70;99.90;;;;;;5004894;28;20230;-80
2022/05/14 02:50:12;;;;;;;0.73;0.73;;;11.60;99.90;;;;;;4997418;28;20211;-82
2022/05/14 02:52:39;;;;;;;20.50;18.40;;;11.60;99.90;;;;;;4995835;28;20189;-81
2022/05/14 02:55:06;;;;;;;1.02;0.60;;;11.60;99.90;;;;;;4995996;28;20203;-82
2022/05/14 02:57:33;;;;;;;0.50;0.40;;;11.50;99.90;;;;;;4995487;28;20230;-82
2022/05/14 03:00:00;;;;;;;0.50;0.40;;;11.50;99.90;;;;;;4995393;28;20200;-82
2022/05/14 03:02:27;;;;;;;0.50;0.40;;;11.50;99.90;;;;;;4995736;28;20204;-81
2022/05/14 03:04:55;;;;;;;0.88;0.70;;;11.50;99.90;;;;;;4995957;28;20207;-81
2022/05/14 03:07:22;;;;;;;0.50;0.40;;;11.50;99.90;;;;;;4995648;28;20229;-82
2022/05/14 03:09:48;;;;;;;2.72;0.65;;;11.50;99.90;;;;;;4995387;28;20570;-80
2022/05/14 03:12:17;;;;;;;1.67;1.30;;;11.50;99.90;;;;;;4996695;28;20204;-81
2022/05/14 03:14:43;;;;;;;2.45;2.35;;;11.50;99.90;;;;;;4998318;28;20193;-82
2022/05/14 03:17:10;;;;;;;0.50;0.40;;;11.40;99.90;;;;;;4998438;28;20231;-82
2022/05/14 03:19:37;;;;;;;0.50;0.40;;;11.40;99.90;;;;;;4998642;28;20197;-82
2022/05/14 03:22:05;;;;;;;0.95;0.65;;;11.40;99.90;;;;;;4998672;28;20207;-82
2022/05/14 03:24:32;;;;;;;0.70;0.60;;;11.40;99.90;;;;;;4998125;28;20215;-82
2022/05/14 03:27:00;;;;;;;0.60;0.60;;;11.30;99.90;;;;;;4997856;28;20234;-81
2022/05/14 03:29:26;;;;;;;0.50;0.40;;;11.30;99.90;;;;;;4998043;28;20206;-81
2022/05/14 03:31:55;;;;;;;0.50;0.40;;;11.30;99.90;;;;;;4998147;28;20203;-81
2022/05/14 03:34:22;;;;;;;0.50;0.47;;;11.30;99.90;;;;;;4998128;28;20208;-82
2022/05/14 03:36:48;;;;;;;0.50;0.50;;;11.30;99.90;;;;;;4998547;28;20220;-81
2022/05/14 03:39:17;;;;;;;0.50;0.40;;;11.30;99.90;;;;;;4997297;28;20199;-82
2022/05/14 03:41:45;;;;;;;0.50;0.40;;;11.30;99.90;;;;;;4997632;28;20199;-82
2022/05/14 03:44:12;;;;;;;0.50;0.40;;;11.30;99.90;;;;;;4997233;28;20202;-82
2022/05/14 03:46:39;;;;;;;4.45;0.93;;;11.30;99.90;;;;;;4997032;28;20744;-81
2022/05/14 03:49:06;;;;;;;0.50;0.40;;;11.30;99.90;;;;;;4996179;28;20202;-82
2022/05/14 03:51:33;;;;;;;1.13;1.02;;;11.30;99.90;;;;;;4996571;28;20759;-81
2022/05/14 03:54:00;;;;;;;2.55;2.35;;;11.30;99.90;;;;;;4996483;28;20681;-80
2022/05/14 03:56:29;;;;;;;0.65;0.50;;;11.30;99.90;;;;;;4996706;28;20317;-81
2022/05/14 03:58:55;;;;;;;0.65;0.63;;;11.30;99.90;;;;;;4996293;28;20194;-82
2022/05/14 04:01:22;;;;;;;0.50;0.50;;;11.30;99.90;;;;;;4996122;28;20574;-81
2022/05/14 04:03:49;;;;;;;4.90;0.90;;;11.30;99.90;;;;;;4996714;28;20204;-81
2022/05/14 04:06:16;;;;;;;0.85;0.85;;;11.20;99.90;;;;;;4996259;28;20257;-82
2022/05/14 04:08:43;;;;;;;2.15;1.67;;;11.20;99.90;;;;;;4996472;28;20196;-81
2022/05/14 04:11:10;;;;;;;2.45;2.25;;;11.20;99.90;;;;;;4995880;28;20501;-82
2022/05/14 04:13:38;;;;;;;0.60;0.60;;;11.20;99.90;;;;;;4996118;28;20214;-80
2022/05/14 04:16:05;;;;;;;0.50;0.40;;;11.20;99.90;;;;;;4995662;28;20582;-82
2022/05/14 04:18:32;;;;;;;0.68;0.68;;;11.20;99.90;;;;;;4995272;28;20203;-82
2022/05/14 04:21:00;;;;;;;1.88;1.67;;;11.20;99.90;;;;;;4996208;28;20539;-81
2022/05/14 04:23:29;;;;;;;0.73;0.73;;;11.10;99.90;;;;;;4995432;28;20201;-81
2022/05/14 04:25:57;;;;;;;0.50;0.50;;;11.10;99.90;;;;;;4995666;28;20219;-81
2022/05/14 04:28:24;;;;;;;0.65;0.65;;;11.10;99.90;;;;;;4995316;28;20574;-80
2022/05/14 04:30:53;;;;;;;0.50;0.40;;;11.10;99.90;;;;;;4995609;28;20220;-79
2022/05/14 04:33:21;;;;;;;0.63;0.63;;;11.10;99.90;;;;;;4995676;28;20543;-81
2022/05/14 04:35:48;;;;;;;0.63;0.63;;;11.10;99.90;;;;;;4995224;28;20291;-81
2022/05/14 04:38:15;;;;;;;1.25;1.02;;;11.10;99.90;;;;;;4995444;28;20207;-80
2022/05/14 04:40:42;;;;;;;0.50;0.40;;;11.10;99.90;;;;;;4995490;28;20225;-80
2022/05/14 04:43:10;;;;;;;0.50;0.50;;;11.10;99.90;;;;;;4997407;28;20211;-81
2022/05/14 04:45:38;;;;;;;0.82;0.82;;;11.10;99.90;;;;;;4996836;28;20249;-82
2022/05/14 04:48:07;;;;;;;0.50;0.40;;;11.10;99.90;;;;;;4995294;28;20259;-81
2022/05/14 04:50:35;;;;;;;0.50;0.40;;;11.20;99.90;;;;;;4996064;28;20209;-81
2022/05/14 04:53:02;;;;;;;0.50;0.40;;;11.20;99.90;;;;;;4994349;28;20670;-79
2022/05/14 04:55:28;;;;;;;1.67;1.58;;;11.30;99.90;;;;;;4994627;28;20207;-80
2022/05/14 04:57:55;;;;;;;0.50;0.40;;;11.40;99.90;;;;;;4994356;28;20331;-79
2022/05/14 05:00:22;;;;;;;0.50;0.40;;;11.50;99.90;;;;;;4995204;28;20666;-82
2022/05/14 05:05:35;;;;;;;0.50;0.50;;;11.60;99.90;;;;;;4994917;28;20178;-82
2022/05/14 05:08:01;;;;;;;0.60;0.40;;;11.70;99.90;;;;;;4994592;28;20314;-80
2022/05/14 05:10:29;;;;;;;0.50;0.40;;;11.70;99.90;;;;;;4994809;28;20203;-82
2022/05/14 05:12:55;;;;;;;0.50;0.40;;;11.80;99.90;;;;;;4995126;28;20202;-80
2022/05/14 05:15:25;;;;;;;1.40;1.30;;;11.80;99.90;;;;;;4994412;28;20673;-82
2022/05/14 05:17:51;;;;;;;0.80;0.80;;;11.90;99.90;;;;;;4994143;28;20247;-81
2022/05/14 05:20:18;;;;;;;2.25;1.75;;;11.90;99.90;;;;;;4994706;28;20554;-80
2022/05/14 05:22:48;;;;;;;0.75;0.63;;;12.00;99.90;;;;;;4994781;28;20679;-82
2022/05/14 05:25:14;;;;;;;1.20;0.95;;;12.00;99.90;;;;;;4994193;28;20669;-81
2022/05/14 05:27:41;;;;;;;0.50;0.40;;;12.10;99.90;;;;;;4995983;28;20606;-80
2022/05/14 05:30:11;;;;;;;0.50;0.40;;;12.10;99.90;;;;;;4993903;28;20199;-81
2022/05/14 05:32:38;;;;;;;0.85;0.80;;;12.10;99.90;;;;;;4994392;28;20682;-81
2022/05/14 05:35:06;;;;;;;0.50;0.40;;;12.20;99.90;;;;;;4994051;28;20223;-80
2022/05/14 05:37:33;;;;;;;1.08;0.88;;;12.30;99.90;;;;;;4994423;28;20645;-81
2022/05/14 05:40:01;;;;;;;0.50;0.40;;;12.50;99.90;;;;;;4994155;28;20215;-81
2022/05/14 05:42:27;;;;;;;0.50;0.40;;;12.60;99.90;;;;;;4994025;28;20208;-80
2022/05/14 05:44:55;;;;;;;0.50;0.40;;;12.60;99.90;;;;;;4995096;28;20193;-83
2022/05/14 05:47:22;;;;;;;0.50;0.40;;;12.70;99.90;;;;;;4993884;28;20251;-80
2022/05/14 05:49:49;;;;;;;0.50;0.40;;;12.80;99.90;;;;;;4994179;28;20207;-80
2022/05/14 05:52:16;;;;;;;0.50;0.40;;;12.80;99.90;;;;;;4993961;28;20200;-81
2022/05/14 05:57:33;;;;;;;1.55;1.45;;;12.80;99.90;;;;;;4993867;28;20207;-82
2022/05/14 06:00:00;;;;;;;1.35;0.73;;;12.80;99.90;;;;;;4993888;28;20199;-80
2022/05/14 06:02:27;;;;;;;6.85;1.60;;;13.20;99.90;;;;;;4994647;28;20235;-81
2022/05/14 06:04:54;;;;;;;0.95;0.95;;;13.90;99.90;;;;;;4995193;28;20204;-82
2022/05/14 06:07:20;;;;;;;1.77;1.70;;;14.80;99.90;;;;;;4994465;28;20220;-81
2022/05/14 06:09:48;;;;;;;0.50;0.40;;;15.90;99.90;;;;;;4994477;28;20274;-81
2022/05/14 06:12:15;;;;;;;1.33;1.33;;;16.90;99.90;;;;;;4994381;28;20445;-81
2022/05/14 06:14:44;;;;;;;1.33;1.23;;;17.50;99.90;;;;;;4994548;28;20436;-81
2022/05/14 06:17:11;;;;;;;2.30;2.20;;;18.10;99.90;;;;;;4994347;28;20507;-81
2022/05/14 06:19:37;;;;;;;0.50;0.30;;;18.40;99.90;;;;;;4994417;28;20946;-82
2022/05/14 06:22:05;;;;;;;0.70;0.70;;;19.30;99.90;;;;;;4994197;28;20436;-82
2022/05/14 06:24:32;;;;;;;0.50;0.37;;;20.50;99.90;;;;;;4994330;28;20448;-81
2022/05/14 06:26:59;;;;;;;0.70;0.70;;;21.10;99.90;;;;;;4993874;28;21024;-81
2022/05/14 06:29:25;;;;;;;0.50;0.40;;;21.40;93.60;;;;;;4993929;28;20447;-81
2022/05/14 06:31:53;;;;;;;0.50;0.40;;;21.50;96.80;;;;;;4993939;28;20814;-81
2022/05/14 06:34:20;;;;;;;0.50;0.30;;;21.50;91.40;;;;;;4994186;28;20446;-81
2022/05/14 06:36:47;;;;;;;0.50;0.30;;;22.10;91.30;;;;;;4993839;28;20459;-78
2022/05/14 06:39:13;;;;;;;0.50;0.30;;;23.10;88.30;;;;;;4993724;28;20450;-80
2022/05/14 06:41:40;;;;;;;0.60;0.60;;;23.30;84.40;;;;;;4993442;28;20440;-82
2022/05/14 06:44:08;;;;;;;7.70;0.83;;;23.70;80.10;;;;;;4994329;28;20452;-83
2022/05/14 06:46:35;;;;;;;0.50;0.40;;;23.80;76.70;;;;;;4995257;28;20895;-82
2022/05/14 06:49:03;;;;;;;1.40;1.30;;;23.40;77.70;;;;;;4997686;28;20439;-81
2022/05/14 06:51:32;;;;;;;0.90;0.80;;;24.10;79.60;;;;;;4997357;28;20446;-82
2022/05/14 06:54:02;;;;;;;0.50;0.30;;;24.30;74.70;;;;;;4997909;28;20805;-81
2022/05/14 06:56:30;;;;;;;0.50;0.30;;;24.50;74.90;;;;;;4997313;28;20451;-83
2022/05/14 06:58:58;;;;;;;0.50;0.30;;;25.80;73.50;;;;;;4997665;28;20474;-83
2022/05/14 07:01:25;;;;;;;0.50;0.30;;;26.70;68.30;;;;;;4997630;28;20451;-81
2022/05/14 07:06:41;;;;;;;0.50;0.40;;;26.00;65.00;;;;;;4997129;28;20494;-83
2022/05/14 07:09:11;;;;;;;0.50;0.37;;;26.50;64.70;;;;;;4997382;28;20451;-81
2022/05/14 07:11:40;;;;;;;0.50;0.30;;;26.20;65.00;;;;;;4997644;28;20440;-83
2022/05/14 07:14:07;;;;;;;0.50;0.30;;;26.90;65.60;;;;;;4997287;28;20450;-82
2022/05/14 07:16:34;;;;;;;2.80;0.97;;;27.90;61.20;;;;;;4996857;28;20527;-82
2022/05/14 07:19:01;;;;;;;1.23;1.13;;;27.10;60.40;;;;;;4997207;28;20439;-81
2022/05/14 07:21:28;;;;;;;0.50;0.30;;;27.10;61.80;;;;;;4998079;28;20439;-81
2022/05/14 07:23:56;;;;;;;0.50;0.40;;;26.50;61.70;;;;;;4997838;28;20447;-82
2022/05/14 07:26:23;;;;;;;0.50;0.30;;;26.60;63.30;;;;;;4997522;28;20973;-82
2022/05/14 07:28:49;;;;;;;0.50;0.30;;;27.40;63.90;;;;;;4997102;28;20446;-79
2022/05/14 07:31:16;;;;;;;0.50;0.30;;;29.10;59.50;;;;;;4997260;28;21041;-81
2022/05/14 07:33:43;;;;;;;0.50;0.30;;;30.20;57.60;;;;;;4997973;28;20447;-83
2022/05/14 07:36:13;;;;;;;0.60;0.40;;;29.90;55.70;;;;;;4997602;28;20460;-84
2022/05/14 07:38:40;;;;;;;0.50;0.30;;;29.10;56.30;;;;;;4996946;28;20454;-82
2022/05/14 07:41:11;;;;;;;0.50;0.30;;;27.70;57.90;;;;;;4996780;28;20443;-80
2022/05/14 07:43:40;;;;;;;0.50;0.30;;;27.80;58.70;;;;;;4997706;28;20641;-82
2022/05/14 07:46:10;;;;;;;0.50;0.30;;;28.10;59.00;;;;;;4997749;28;20498;-83
2022/05/14 07:48:40;;;;;;;6.63;0.90;;;27.70;58.90;;;;;;4996766;28;20817;-81
2022/05/14 07:51:10;;;;;;;1.23;1.17;;;27.80;59.00;;;;;;4997007;28;20440;-81
2022/05/14 07:53:37;;;;;;;1.80;1.70;;;27.50;59.30;;;;;;4996723;28;20968;-84
2022/05/14 07:56:08;;;;;;;0.50;0.30;;;27.40;60.00;;;;;;4997228;28;20824;-82
2022/05/14 07:58:37;;;;;;;0.50;0.30;;;28.40;60.40;;;;;;4995949;28;20527;-81
2022/05/14 08:01:04;;;;;;;0.50;0.30;;;29.60;58.70;;;;;;4997215;28;20436;-83
2022/05/14 08:03:33;;;;;;;0.50;0.30;;;30.00;56.60;;;;;;5000201;28;20467;-83
2022/05/14 08:06:00;;;;;;;0.50;0.30;;;29.50;56.40;;;;;;5003845;28;20436;-84
2022/05/14 08:08:27;;;;;;;1.63;1.53;;;29.70;56.50;;;;;;4997189;28;20467;-83
2022/05/14 08:10:55;;;;;;;0.50;0.30;;;29.00;56.30;;;;;;4997904;28;20798;-81
2022/05/14 08:13:24;;;;;;;5.83;1.10;;;28.10;58.80;;;;;;4997247;28;20467;-83
2022/05/14 08:15:53;;;;;;;0.50;0.30;;;27.20;58.80;;;;;;4997015;28;20802;-82
2022/05/14 08:18:20;;;;;;;0.50;0.30;;;26.70;61.30;;;;;;4996895;28;20512;-83
2022/05/14 08:20:50;;;;;;;0.50;0.30;;;27.60;61.80;;;;;;4996852;28;20987;-85
2022/05/14 08:26:02;;;;;;;1.93;1.73;;;29.00;57.90;;;;;;4996558;28;20439;-82
2022/05/14 08:28:30;;;;;;;1.40;0.67;;;29.00;57.70;;;;;;4996556;28;20484;-82
2022/05/14 08:31:00;;;;;;;0.60;0.50;;;27.90;59.00;;;;;;4997070;28;20779;-82
2022/05/14 08:33:27;;;;;;;1.37;1.27;;;27.50;59.80;;;;;;4996900;28;20439;-82
2022/05/14 08:35:53;;;;;;;0.50;0.30;;;28.20;59.80;;;;;;4996406;28;20515;-83
2022/05/14 08:38:21;;;;;;;0.60;0.60;;;28.80;59.20;;;;;;4997192;28;20439;-82
2022/05/14 08:40:54;;;;;;;0.50;0.40;;;29.80;58.40;;;;;;4996860;28;20483;-82
2022/05/14 08:43:25;;;;;;;0.60;0.60;;;29.30;57.70;;;;;;4996843;28;20460;-83
2022/05/14 08:45:53;;;;;;;0.50;0.30;;;29.60;57.30;;;;;;4996745;28;20432;-82
2022/05/14 08:48:25;;;;;;;1.37;1.27;;;29.00;59.00;;;;;;4996500;28;20472;-82
2022/05/14 08:50:58;;;;;;;0.70;0.50;;;28.80;58.00;;;;;;4996312;28;20435;-81
2022/05/14 08:53:27;;;;;;;0.50;0.30;;;28.10;58.80;;;;;;4996496;28;20420;-81
2022/05/14 08:56:05;;;;;;;0.57;0.40;;;28.80;60.20;;;;;;4995621;28;20491;-83
2022/05/14 08:58:40;;;;;;;0.50;0.30;;;29.60;58.30;;;;;;4995321;28;20910;-83
2022/05/14 09:01:08;;;;;;;0.50;0.30;;;30.50;57.40;;;;;;4996442;28;20424;-83
2022/05/14 09:03:36;;;;;;;0.60;0.47;;;31.50;55.80;;;;;;4996446;28;20457;-81
2022/05/14 09:06:03;;;;;;;0.50;0.30;;;30.80;54.80;;;;;;4996449;28;20451;-81
2022/05/14 09:08:30;;;;;;;0.50;0.30;;;31.00;55.50;;;;;;4997159;28;20483;-82
2022/05/14 09:11:01;;;;;;;0.50;0.30;;;30.50;55.30;;;;;;4997749;28;20801;-82
2022/05/14 09:13:29;;;;;;;0.70;0.63;;;31.00;56.00;;;;;;4997836;28;20763;-82
2022/05/14 09:15:59;;;;;;;0.50;0.30;;;31.40;54.10;;;;;;4997493;28;20443;-83
2022/05/14 09:18:28;;;;;;;0.77;0.77;;;30.80;54.60;;;;;;4997348;28;20451;-82
2022/05/14 09:21:00;;;;;;;0.50;0.40;;;31.70;55.20;;;;;;4996124;28;20490;-81
2022/05/14 09:23:30;;;;;;;22.13;1.33;;;31.50;53.60;;;;;;4996755;28;20424;-82
2022/05/14 09:26:02;;;;;;;0.50;0.30;;;31.00;54.80;;;;;;4996190;28;20529;-83
2022/05/14 09:28:39;;;;;;;0.50;0.30;;;31.50;53.40;;;;;;4996107;28;20506;-83
2022/05/14 09:31:06;;;;;;;0.60;0.50;;;31.10;54.00;;;;;;4996743;28;20502;-82
2022/05/14 09:33:38;;;;;;;0.60;0.50;;;31.40;53.70;;;;;;4995616;28;20945;-83
2022/05/14 09:36:06;;;;;;;0.50;0.40;;;30.70;53.60;;;;;;4995559;28;20483;-82
2022/05/14 09:38:33;;;;;;;0.50;0.30;;;30.10;54.80;;;;;;4995559;28;20440;-82
2022/05/14 09:41:10;;;;;;;0.50;0.30;;;30.60;54.80;;;;;;4995292;28;20444;-80
2022/05/14 09:43:38;;;;;;;0.50;0.30;;;31.40;53.70;;;;;;4995416;28;20420;-82
2022/05/14 09:46:10;;;;;;;0.50;0.30;;;31.40;54.10;;;;;;4999313;28;20439;-81
2022/05/14 09:48:46;;;;;;;0.50;0.40;;;31.70;53.60;;;;;;4997124;28;20482;-78
2022/05/14 09:51:27;;;;;;;0.50;0.30;;;31.90;52.80;;;;;;4998433;28;20447;-79
2022/05/14 09:53:54;;;;;;;0.50;0.30;;;32.50;53.50;;;;;;5009335;28;20479;-81
2022/05/14 09:56:42;;;;;;;0.50;0.40;;;33.60;51.10;;;;;;5003233;28;20460;-82
2022/05/14 09:59:22;;;;;;;0.50;0.30;;;34.30;50.80;;;;;;5005327;28;20475;-80
2022/05/14 10:01:54;;;;;;;0.50;0.40;;;33.50;49.80;;;;;;5008033;28;20420;-83
2022/05/14 10:04:42;;;;;;;0.50;0.40;;;33.30;51.20;;;;;;5006145;28;20443;-81
2022/05/14 10:07:15;;;;;;;0.50;0.40;;;33.80;50.20;;;;;;5004596;28;20459;-82
2022/05/14 10:09:53;;;;;;;0.50;0.40;;;33.10;50.20;;;;;;5005677;28;20451;-82
2022/05/14 10:12:26;;;;;;;0.50;0.30;;;32.80;51.10;;;;;;5010553;28;20424;-82
2022/05/14 10:15:02;;;;;;;0.50;0.40;;;33.30;50.80;;;;;;5011300;28;20416;-81
2022/05/14 10:17:46;;;;;;;0.50;0.30;;;33.30;49.60;;;;;;5007153;28;20483;-79
2022/05/14 10:20:33;;;;;;;0.50;0.30;;;32.60;51.00;;;;;;5007191;28;20420;-81
2022/05/14 10:29:06;;;;;;;0.50;0.30;;;33.70;50.00;;;;;;5001312;28;20483;-83
2022/05/14 10:31:40;;;;;;;0.40;0.30;;;33.80;51.70;;;;;;5000713;28;21001;-83
2022/05/14 10:34:13;;;;;;;0.50;0.30;;;33.70;49.50;;;;;;5002437;28;20444;-83
2022/05/14 10:36:45;;;;;;;0.50;0.47;;;32.90;49.80;;;;;;5000092;28;20468;-82
2022/05/14 10:39:20;;;;;;;0.50;0.30;;;32.60;49.60;;;;;;5000415;28;20475;-81
2022/05/14 10:41:52;;;;;;;0.50;0.40;;;31.90;51.70;;;;;;5001688;28;20423;-82
2022/05/14 10:44:28;;;;;;;0.50;0.30;;;31.40;51.50;;;;;;5000211;28;20447;-82
2022/05/14 10:47:00;;;;;;;0.50;0.40;;;31.50;52.10;;;;;;4999673;28;20473;-81
2022/05/14 10:49:36;;;;;;;1.70;1.60;;;31.10;52.30;;;;;;4999103;28;20523;-79
2022/05/14 10:52:04;;;;;;;0.77;0.40;;;31.10;53.00;;;;;;5002506;28;20944;-81
2022/05/14 10:54:34;;;;;;;0.50;0.30;;;30.90;52.90;;;;;;5017491;28;20451;-81
2022/05/14 10:57:02;;;;;;;0.97;0.87;;;30.80;54.10;;;;;;5016858;28;20473;-80
2022/05/14 10:59:34;;;;;;;0.50;0.30;;;30.00;52.90;;;;;;5016696;28;20486;-80
2022/05/14 11:02:06;;;;;;;1.03;0.70;;;29.60;53.50;;;;;;5013145;28;20448;-80
2022/05/14 11:04:45;;;;;;;1.63;0.97;;;29.70;54.10;;;;;;5009016;28;20446;-80
2022/05/14 11:07:14;;;;;;;0.90;0.60;;;29.70;54.60;;;;;;5016405;28;20979;-82
2022/05/14 11:09:44;;;;;;;0.60;0.50;;;30.20;53.20;;;;;;5014611;28;20435;-80
2022/05/14 11:12:15;;;;;;;0.50;0.30;;;30.00;53.90;;;;;;5017788;28;20455;-82
2022/05/14 11:14:44;;;;;;;0.50;0.30;;;30.50;52.80;;;;;;5018211;28;20450;-81
2022/05/14 11:17:19;;;;;;;0.50;0.40;;;30.90;52.30;;;;;;5017547;28;20453;-80
2022/05/14 11:19:47;;;;;;;0.50;0.30;;;30.40;52.40;;;;;;5018012;28;20445;-81
2022/05/14 11:22:24;;;;;;;0.50;0.30;;;29.10;53.20;;;;;;5017811;28;20925;-82
2022/05/14 11:24:53;;;;;;;0.50;0.30;;;29.00;57.40;;;;;;5018820;28;20422;-81
2022/05/14 11:27:29;;;;;;;0.60;0.50;;;29.90;55.20;;;;;;5017338;28;20471;-82
2022/05/14 11:30:00;;;;;;;0.60;0.43;;;30.50;51.60;;;;;;5017669;28;20443;-81
2022/05/14 11:32:27;;;;;;;0.50;0.30;;;30.60;51.40;;;;;;5017364;28;20426;-81
2022/05/14 11:34:55;;;;;;;0.50;0.43;;;31.40;50.60;;;;;;5017993;28;20439;-81
2022/05/14 11:37:30;;;;;;;0.50;0.40;;;30.60;51.10;;;;;;5017361;28;20469;-79
2022/05/14 11:40:13;;;;;;;0.50;0.30;;;30.70;51.20;;;;;;5018017;28;20971;-82
2022/05/14 11:42:40;;;;;;;0.50;0.30;;;31.50;50.90;;;;;;5018246;28;20497;-81
2022/05/14 11:45:14;;;;;;;0.50;0.40;;;32.50;51.00;;;;;;5017515;28;20439;-82
2022/05/14 11:47:55;;;;;;;0.50;0.40;;;33.00;49.50;;;;;;5015045;28;20462;-82
2022/05/14 11:50:34;;;;;;;0.50;0.30;;;33.30;48.80;;;;;;5009780;28;20912;-81
2022/05/14 11:53:18;;;;;;;0.60;0.57;;;33.00;49.30;;;;;;5014920;28;20435;-82
2022/05/14 11:55:53;;;;;;;0.60;0.60;;;33.90;48.90;;;;;;5017034;28;20462;-82
2022/05/14 11:58:27;;;;;;;0.50;0.30;;;34.20;47.20;;;;;;5016602;28;20463;-82
2022/05/14 12:00:56;;;;;;;0.50;0.30;;;34.00;46.50;;;;;;5016636;28;20443;-80
2022/05/14 12:03:27;;;;;;;0.50;0.30;;;33.70;48.70;;;;;;5017014;28;20470;-82
2022/05/14 12:05:57;;;;;;;0.50;0.30;;;33.30;47.60;;;;;;5017342;28;20446;-82
2022/05/14 12:08:51;;;;;;;0.77;0.77;;;32.60;48.30;;;;;;5016915;28;20443;-81
2022/05/14 12:11:29;;;;;;;0.50;0.30;;;32.80;48.30;;;;;;5016710;28;20427;-82
2022/05/14 12:14:06;;;;;;;0.50;0.30;;;33.00;48.20;;;;;;5017107;28;20423;-82
2022/05/14 12:16:34;;;;;;;0.50;0.30;;;32.60;47.20;;;;;;5017082;28;20466;-82
2022/05/14 12:19:02;;;;;;;0.50;0.30;;;31.60;48.10;;;;;;5016243;28;20475;-81
2022/05/14 12:21:29;;;;;;;4.77;2.43;;;30.50;49.30;;;;;;5016799;28;20454;-81
2022/05/14 12:23:56;;;;;;;0.50;0.30;;;30.60;49.60;;;;;;5016744;28;20526;-81
2022/05/14 12:26:25;;;;;;;0.50;0.30;;;30.60;50.40;;;;;;5016225;28;20470;-82
2022/05/14 12:28:53;;;;;;;0.50;0.40;;;31.60;50.50;;;;;;5016702;28;20530;-80
2022/05/14 12:34:11;;;;;;;0.50;0.40;;;32.90;47.70;;;;;;5014954;28;20449;-81
2022/05/14 12:36:42;;;;;;;0.50;0.30;;;32.40;49.70;;;;;;5015595;28;20457;-82
2022/05/14 12:39:13;;;;;;;0.80;0.80;;;32.30;49.00;;;;;;5015284;28;20530;-82
2022/05/14 12:41:42;;;;;;;10.13;0.77;;;32.20;48.80;;;;;;5015442;28;20446;-82
2022/05/14 12:44:14;;;;;;;2.93;1.90;;;32.10;48.50;;;;;;5015369;28;20475;-81
2022/05/14 12:46:43;;;;;;;0.50;0.30;;;32.10;49.40;;;;;;5015759;28;20451;-82
2022/05/14 12:49:18;;;;;;;0.50;0.40;;;32.60;48.70;;;;;;5015335;28;20443;-81
2022/05/14 12:51:49;;;;;;;0.50;0.30;;;33.10;47.50;;;;;;5016939;28;20438;-81
2022/05/14 12:54:25;;;;;;;0.50;0.30;;;32.90;48.10;;;;;;5017117;28;20904;-82
2022/05/14 12:56:56;;;;;;;0.50;0.40;;;33.10;49.50;;;;;;5016086;28;20545;-81
2022/05/14 12:59:23;;;;;;;2.73;2.63;;;32.20;48.40;;;;;;5016375;28;20482;-81
2022/05/14 13:01:55;;;;;;;0.50;0.30;;;31.30;50.60;;;;;;5016979;28;20446;-81
2022/05/14 13:04:27;;;;;;;0.50;0.30;;;30.00;51.10;;;;;;5017065;28;20435;-82
2022/05/14 13:07:01;;;;;;;0.50;0.30;;;30.20;54.50;;;;;;5016305;28;20466;-82
2022/05/14 13:09:28;;;;;;;0.50;0.30;;;31.20;53.50;;;;;;5016301;28;20508;-80
2022/05/14 13:11:59;;;;;;;0.50;0.30;;;30.90;50.90;;;;;;5013125;28;20513;-82
2022/05/14 13:14:29;;;;;;;0.50;0.30;;;30.50;51.60;;;;;;5016163;28;20439;-82
2022/05/14 13:16:58;;;;;;;0.50;0.30;;;30.10;51.50;;;;;;5015085;28;20455;-82
2022/05/14 13:19:41;;;;;;;0.50;0.30;;;29.90;52.50;;;;;;5015932;28;20478;-82